createdAt,value
2018-07-25T00:02:20.288Z,20.26
2018-07-25T00:04:48.935Z,20.33
2018-07-25T00:07:17.665Z,20.40
2018-07-25T00:09:46.297Z,20.52
2018-07-25T00:12:14.908Z,20.47
2018-07-25T00:14:43.336Z,20.42
2018-07-25T00:17:12.338Z,20.36
2018-07-25T00:19:40.990Z,20.31
2018-07-25T00:22:09.680Z,20.25
2018-07-25T00:24:39.303Z,20.21
2018-07-25T00:27:08.100Z,20.21
2018-07-25T00:29:36.768Z,20.18
2018-07-25T00:32:05.470Z,20.16
2018-07-25T00:34:34.258Z,20.22
2018-07-25T00:37:02.970Z,20.15
2018-07-25T00:39:31.613Z,20.05
2018-07-25T00:42:00.274Z,19.84
2018-07-25T00:44:29.072Z,19.76
2018-07-25T00:46:57.713Z,19.73
2018-07-25T00:49:26.341Z,19.81
2018-07-25T00:51:54.983Z,19.81
2018-07-25T00:54:23.668Z,19.73
2018-07-25T00:56:52.306Z,19.77
2018-07-25T00:59:20.946Z,19.67
2018-07-25T01:01:49.408Z,19.60
2018-07-25T01:04:18.011Z,19.48
2018-07-25T01:06:46.433Z,19.39
2018-07-25T01:09:15.051Z,19.06
2018-07-25T01:11:43.793Z,19.06
2018-07-25T01:14:12.469Z,19.23
2018-07-25T01:16:41.082Z,19.07
2018-07-25T01:19:09.703Z,19.03
2018-07-25T01:21:38.345Z,19.01
2018-07-25T01:24:06.980Z,19.02
2018-07-25T01:26:35.491Z,19.01
2018-07-25T01:29:04.163Z,19.05
2018-07-25T01:31:32.766Z,19.03
2018-07-25T01:34:01.539Z,19.06
2018-07-25T01:36:30.173Z,19.06
2018-07-25T01:38:58.759Z,19.07
2018-07-25T01:41:27.371Z,19.02
2018-07-25T01:43:55.784Z,19.05
2018-07-25T01:46:24.403Z,18.94
2018-07-25T01:48:53.025Z,18.90
2018-07-25T01:51:21.445Z,18.85
2018-07-25T01:53:50.063Z,18.79
2018-07-25T01:56:18.670Z,18.68
2018-07-25T01:58:47.348Z,18.60
2018-07-25T02:01:15.831Z,18.50
2018-07-25T02:03:44.445Z,18.51
2018-07-25T02:06:13.090Z,18.60
2018-07-25T02:08:41.658Z,18.63
2018-07-25T02:11:10.266Z,18.67
2018-07-25T02:13:38.693Z,18.67
2018-07-25T02:16:07.338Z,18.66
2018-07-25T02:18:35.743Z,18.51
2018-07-25T02:21:04.380Z,18.47
2018-07-25T02:23:32.975Z,18.27
2018-07-25T02:26:01.626Z,18.23
2018-07-25T02:28:30.223Z,18.23
2018-07-25T02:30:59.419Z,18.25
2018-07-25T02:33:33.680Z,18.21
2018-07-25T02:36:02.357Z,18.10
2018-07-25T02:38:30.981Z,18.01
2018-07-25T02:40:59.599Z,17.96
2018-07-25T02:43:28.063Z,17.95
2018-07-25T02:45:56.671Z,17.94
2018-07-25T02:48:25.091Z,17.87
2018-07-25T02:50:53.733Z,17.79
2018-07-25T02:53:22.351Z,17.74
2018-07-25T02:55:50.973Z,17.67
2018-07-25T02:58:19.573Z,17.64
2018-07-25T03:00:48.221Z,17.71
2018-07-25T03:03:16.793Z,17.76
2018-07-25T03:05:45.486Z,17.78
2018-07-25T03:08:14.157Z,17.76
2018-07-25T03:11:00.530Z,17.68
2018-07-25T03:13:28.949Z,17.83
2018-07-25T03:16:03.443Z,17.79
2018-07-25T03:18:32.088Z,17.83
2018-07-25T03:21:01.173Z,17.83
2018-07-25T03:23:31.208Z,17.82
2018-07-25T03:25:59.678Z,18.32
2018-07-25T03:28:28.770Z,18.58
2018-07-25T03:30:57.855Z,18.64
2018-07-25T03:33:26.754Z,18.76
2018-07-25T03:35:56.575Z,18.59
2018-07-25T03:38:25.764Z,18.36
2018-07-25T03:40:54.372Z,18.16
2018-07-25T03:43:23.071Z,18.24
2018-07-25T03:45:51.471Z,18.48
2018-07-25T03:48:20.141Z,18.29
2018-07-25T03:50:48.779Z,18.15
2018-07-25T03:53:17.411Z,17.95
2018-07-25T03:55:46.041Z,17.86
2018-07-25T03:58:14.659Z,17.83
2018-07-25T04:00:43.101Z,17.83
2018-07-25T04:03:11.769Z,17.97
2018-07-25T04:05:40.404Z,18.07
2018-07-25T04:08:08.838Z,17.87
2018-07-25T04:10:37.461Z,17.68
2018-07-25T04:13:05.932Z,17.49
2018-07-25T04:15:34.562Z,17.37
2018-07-25T04:18:03.245Z,17.26
2018-07-25T04:20:31.956Z,17.46
2018-07-25T04:23:00.620Z,17.46
2018-07-25T04:25:29.326Z,17.59
2018-07-25T04:27:57.915Z,17.62
2018-07-25T04:30:26.650Z,17.74
2018-07-25T04:32:55.136Z,17.94
2018-07-25T04:35:23.575Z,18.08
2018-07-25T04:37:52.374Z,18.20
2018-07-25T04:40:21.085Z,18.38
2018-07-25T04:42:49.787Z,18.72
2018-07-25T04:45:18.438Z,18.75
2018-07-25T04:47:47.092Z,19.01
2018-07-25T04:50:15.965Z,19.20
2018-07-25T04:52:44.595Z,19.23
2018-07-25T04:55:13.267Z,19.49
2018-07-25T04:57:41.946Z,19.49
2018-07-25T05:00:10.663Z,19.67
2018-07-25T05:02:39.293Z,19.97
2018-07-25T05:05:08.011Z,20.13
2018-07-25T05:07:36.664Z,20.57
2018-07-25T05:10:05.661Z,21.00
2018-07-25T05:12:34.333Z,21.29
2018-07-25T05:15:02.945Z,21.62
2018-07-25T05:17:31.627Z,21.95
2018-07-25T05:20:00.268Z,22.40
2018-07-25T05:22:28.935Z,22.76
2018-07-25T05:24:57.395Z,23.03
2018-07-25T05:27:26.003Z,23.28
2018-07-25T05:29:54.478Z,23.07
2018-07-25T05:32:23.236Z,23.07
2018-07-25T05:34:51.868Z,23.15
2018-07-25T05:37:20.509Z,23.23
2018-07-25T05:39:49.186Z,23.41
2018-07-25T05:42:17.872Z,23.85
2018-07-25T05:44:46.516Z,24.15
2018-07-25T05:47:15.223Z,24.22
2018-07-25T05:49:43.858Z,23.88
2018-07-25T05:52:12.385Z,24.07
2018-07-25T05:54:41.080Z,23.78
2018-07-25T05:57:10.076Z,23.82
2018-07-25T05:59:38.801Z,24.01
2018-07-25T06:02:08.466Z,23.70
2018-07-25T06:04:37.091Z,23.93
2018-07-25T06:13:06.139Z,25.01
2018-07-25T06:15:35.069Z,25.24
2018-07-25T06:18:04.139Z,25.50
2018-07-25T06:20:32.922Z,25.62
2018-07-25T06:23:01.804Z,25.67
2018-07-25T06:25:30.579Z,25.35
2018-07-25T06:27:59.454Z,25.14
2018-07-25T06:30:28.186Z,25.30
2018-07-25T06:32:56.898Z,25.57
2018-07-25T06:35:26.139Z,26.09
2018-07-25T06:37:54.651Z,26.44
2018-07-25T06:40:23.306Z,26.99
2018-07-25T06:42:52.152Z,27.55
2018-07-25T06:45:21.139Z,27.76
2018-07-25T06:47:49.845Z,27.62
2018-07-25T06:50:18.591Z,27.66
2018-07-25T06:52:47.430Z,27.95
2018-07-25T06:55:16.078Z,28.17
2018-07-25T06:57:44.743Z,28.63
2018-07-25T07:00:13.439Z,28.69
2018-07-25T07:02:42.107Z,28.75
2018-07-25T07:05:10.791Z,28.88
2018-07-25T07:07:39.579Z,29.19
2018-07-25T07:10:08.298Z,29.48
2018-07-25T07:12:37.016Z,29.52
2018-07-25T07:15:07.494Z,29.76
2018-07-25T07:17:36.399Z,30.13
2018-07-25T07:20:05.190Z,30.16
2018-07-25T07:22:33.823Z,30.38
2018-07-25T07:25:02.298Z,30.55
2018-07-25T07:27:30.785Z,30.59
2018-07-25T07:29:59.218Z,30.58
2018-07-25T07:32:28.073Z,30.63
2018-07-25T07:34:56.938Z,30.75
2018-07-25T07:37:25.847Z,31.19
2018-07-25T07:39:54.654Z,31.86
2018-07-25T07:42:23.326Z,31.45
2018-07-25T07:44:52.096Z,31.36
2018-07-25T07:47:20.868Z,31.78
2018-07-25T07:49:49.701Z,31.97
2018-07-25T07:52:18.918Z,31.67
2018-07-25T07:54:47.653Z,31.76
2018-07-25T07:57:16.192Z,32.13
2018-07-25T07:59:44.991Z,32.14
2018-07-25T08:02:13.659Z,31.71
2018-07-25T08:04:42.349Z,32.03
2018-07-25T08:07:11.116Z,32.35
2018-07-25T08:09:39.758Z,32.17
2018-07-25T08:12:08.463Z,32.45
2018-07-25T08:14:37.176Z,32.62
2018-07-25T08:17:06.336Z,32.89
2018-07-25T08:19:34.784Z,33.16
2018-07-25T08:22:03.739Z,33.39
2018-07-25T08:24:32.384Z,33.46
2018-07-25T08:27:00.833Z,33.25
2018-07-25T08:29:29.628Z,33.43
2018-07-25T08:31:58.428Z,33.55
2018-07-25T08:34:27.235Z,33.59
2018-07-25T08:36:56.026Z,33.49
2018-07-25T08:39:24.798Z,33.83
2018-07-25T08:41:53.548Z,34.02
2018-07-25T08:44:22.258Z,34.26
2018-07-25T08:46:51.001Z,34.36
2018-07-25T08:49:19.693Z,34.39
2018-07-25T08:51:48.422Z,34.13
2018-07-25T08:54:17.541Z,34.03
2018-07-25T08:56:46.331Z,34.68
2018-07-25T08:59:14.978Z,34.87
2018-07-25T09:01:43.683Z,34.99
2018-07-25T09:04:12.423Z,35.15
2018-07-25T09:06:41.142Z,35.27
2018-07-25T09:09:10.579Z,35.35
2018-07-25T09:11:39.316Z,35.35
2018-07-25T09:14:08.076Z,35.61
2018-07-25T09:16:36.981Z,35.59
2018-07-25T09:19:05.849Z,35.62
2018-07-25T09:21:34.480Z,35.65
2018-07-25T09:24:03.243Z,35.97
2018-07-25T09:26:32.056Z,35.93
2018-07-25T09:29:00.737Z,36.05
2018-07-25T09:31:29.482Z,36.05
2018-07-25T09:33:58.204Z,35.80
2018-07-25T09:36:27.052Z,36.01
2018-07-25T09:38:55.843Z,36.33
2018-07-25T09:41:24.618Z,36.20
2018-07-25T09:43:54.090Z,36.23
2018-07-25T09:46:22.845Z,36.13
2018-07-25T09:48:51.532Z,36.13
2018-07-25T09:51:20.285Z,36.60
2018-07-25T09:53:49.087Z,36.79
2018-07-25T09:56:17.789Z,36.95
2018-07-25T09:58:46.537Z,36.88
2018-07-25T10:01:15.290Z,36.76
2018-07-25T10:03:44.059Z,36.73
2018-07-25T10:06:12.766Z,36.92
2018-07-25T10:08:41.436Z,37.32
2018-07-25T10:11:10.199Z,36.98
2018-07-25T10:13:38.913Z,37.63
2018-07-25T10:16:07.789Z,37.67
2018-07-25T10:18:36.596Z,37.50
2018-07-25T10:21:05.711Z,37.54
2018-07-25T10:23:34.338Z,37.68
2018-07-25T10:26:03.173Z,38.06
2018-07-25T10:28:31.748Z,38.00
2018-07-25T10:31:00.576Z,38.35
2018-07-25T10:33:30.233Z,38.54
2018-07-25T10:35:58.948Z,39.01
2018-07-25T10:38:27.510Z,38.49
2018-07-25T10:40:56.285Z,38.63
2018-07-25T10:43:25.216Z,38.87
2018-07-25T10:45:53.791Z,39.19
2018-07-25T10:48:22.451Z,38.60
2018-07-25T10:50:51.319Z,38.05
2018-07-25T10:53:20.077Z,38.33
2018-07-25T10:55:48.918Z,38.32
2018-07-25T10:58:17.883Z,38.33
2018-07-25T11:00:46.579Z,38.53
2018-07-25T11:03:15.287Z,38.98
2018-07-25T11:05:44.042Z,39.12
2018-07-25T11:08:12.799Z,38.66
2018-07-25T11:10:41.685Z,39.12
2018-07-25T11:13:11.904Z,39.19
2018-07-25T11:15:40.704Z,39.22
2018-07-25T11:18:09.444Z,38.98
2018-07-25T11:20:38.118Z,38.74
2018-07-25T11:23:07.197Z,38.33
2018-07-25T11:25:35.928Z,38.54
2018-07-25T11:28:04.775Z,38.38
2018-07-25T11:30:33.511Z,38.83
2018-07-25T11:33:02.172Z,38.18
2018-07-25T11:35:30.866Z,38.48
2018-07-25T11:37:59.665Z,39.10
2018-07-25T11:40:28.510Z,39.11
2018-07-25T11:42:58.209Z,39.68
2018-07-25T11:45:26.878Z,40.10
2018-07-25T11:47:55.560Z,40.00
2018-07-25T11:50:24.152Z,40.22
2018-07-25T11:52:52.779Z,40.72
2018-07-25T11:55:21.623Z,40.44
2018-07-25T11:57:50.419Z,40.19
2018-07-25T12:00:19.181Z,40.53
2018-07-25T12:02:49.179Z,40.84
2018-07-25T12:05:18.024Z,41.19
2018-07-25T12:07:47.353Z,41.60
2018-07-25T12:10:16.173Z,40.95
2018-07-25T12:12:45.021Z,41.55
2018-07-25T12:15:13.944Z,41.32
2018-07-25T12:17:42.754Z,40.94
2018-07-25T12:20:11.651Z,40.89
2018-07-25T12:22:40.430Z,40.74
2018-07-25T12:25:09.173Z,39.89
2018-07-25T12:27:38.108Z,39.71
2018-07-25T12:30:08.438Z,40.20
2018-07-25T12:32:37.124Z,41.24
2018-07-25T12:35:05.873Z,41.31
2018-07-25T12:37:34.447Z,41.19
2018-07-25T12:40:03.317Z,40.32
2018-07-25T12:42:32.105Z,40.89
2018-07-25T12:45:00.883Z,40.63
2018-07-25T12:47:29.561Z,40.66
2018-07-25T12:49:58.346Z,41.05
2018-07-25T12:52:27.278Z,40.75
2018-07-25T12:54:56.018Z,40.62
2018-07-25T12:57:24.796Z,40.29
2018-07-25T12:59:53.606Z,40.76
2018-07-25T13:02:22.351Z,41.15
2018-07-25T13:04:50.879Z,40.59
2018-07-25T13:07:19.616Z,40.79
2018-07-25T13:09:48.525Z,40.22
2018-07-25T13:12:17.483Z,39.58
2018-07-25T13:14:46.284Z,39.02
2018-07-25T13:17:14.874Z,38.33
2018-07-25T13:19:43.641Z,38.05
2018-07-25T13:22:12.558Z,38.18
2018-07-25T13:24:41.046Z,39.15
2018-07-25T13:27:09.909Z,40.33
2018-07-25T13:29:38.921Z,40.55
2018-07-25T13:32:07.738Z,40.87
2018-07-25T13:34:36.503Z,41.06
2018-07-25T13:37:05.351Z,41.23
2018-07-25T13:39:33.831Z,41.37
2018-07-25T13:42:03.596Z,41.12
2018-07-25T13:44:32.319Z,41.06
2018-07-25T13:47:01.129Z,40.97
2018-07-25T13:49:29.807Z,41.01
2018-07-25T13:51:58.592Z,40.13
2018-07-25T13:54:27.328Z,40.35
2018-07-25T13:56:56.091Z,40.59
2018-07-25T13:59:24.804Z,40.45
2018-07-25T14:01:53.504Z,40.55
2018-07-25T14:04:22.161Z,40.90
2018-07-25T14:06:51.639Z,40.70
2018-07-25T14:09:20.316Z,40.81
2018-07-25T14:11:49.167Z,40.94
2018-07-25T14:14:17.941Z,40.33
2018-07-25T14:16:46.709Z,38.97
2018-07-25T14:19:16.329Z,37.72
2018-07-25T14:21:45.173Z,36.95
2018-07-25T14:24:14.139Z,36.97
2018-07-25T14:26:42.797Z,36.89
2018-07-25T14:29:11.594Z,37.41
2018-07-25T14:31:40.326Z,37.45
2018-07-25T14:34:09.048Z,37.75
2018-07-25T14:36:37.751Z,38.33
2018-07-25T14:39:09.945Z,38.91
2018-07-25T14:41:39.331Z,38.58
2018-07-25T14:44:08.346Z,38.45
2018-07-25T14:46:37.108Z,38.17
2018-07-25T14:49:05.980Z,37.93
2018-07-25T14:51:34.741Z,38.77
2018-07-25T14:54:03.521Z,40.11
2018-07-25T14:56:32.212Z,39.56
2018-07-25T14:59:00.933Z,39.78
2018-07-25T15:01:29.783Z,38.92
2018-07-25T15:03:58.569Z,39.78
2018-07-25T15:06:27.258Z,39.77
2018-07-25T15:08:55.851Z,39.74
2018-07-25T15:11:24.357Z,39.70
2018-07-25T15:13:53.091Z,39.93
2018-07-25T15:16:21.850Z,40.19
2018-07-25T15:18:50.640Z,39.91
2018-07-25T15:21:19.498Z,39.93
2018-07-25T15:23:57.181Z,39.48
2018-07-25T15:26:26.339Z,38.95
2018-07-25T15:28:57.081Z,38.13
2018-07-25T15:31:26.620Z,37.50
2018-07-25T15:33:55.540Z,36.81
2018-07-25T15:36:42.850Z,36.57
2018-07-25T15:39:17.589Z,36.46
2018-07-25T15:41:47.313Z,36.22
2018-07-25T15:44:17.152Z,35.91
2018-07-25T15:46:46.020Z,35.57
2018-07-25T15:49:14.675Z,35.37
2018-07-25T15:51:43.529Z,35.15
2018-07-25T15:54:12.298Z,34.77
2018-07-25T15:56:41.444Z,34.28
2018-07-25T15:59:11.635Z,33.95
2018-07-25T16:01:40.330Z,33.79
2018-07-25T16:04:09.319Z,33.43
2018-07-25T16:06:38.536Z,33.36
2018-07-25T16:09:09.279Z,33.49
2018-07-25T16:11:38.501Z,33.47
2018-07-25T16:14:07.366Z,33.62
2018-07-25T16:16:36.113Z,33.76
2018-07-25T16:19:05.752Z,33.64
2018-07-25T16:21:34.498Z,33.08
2018-07-25T16:24:03.324Z,32.92
2018-07-25T16:26:31.950Z,33.10
2018-07-25T16:29:02.091Z,33.12
2018-07-25T16:31:30.825Z,33.02
2018-07-25T16:33:59.745Z,32.73
2018-07-25T16:36:28.524Z,32.52
2018-07-25T16:38:57.523Z,32.29
2018-07-25T16:41:26.270Z,31.99
2018-07-25T16:43:55.058Z,31.67
2018-07-25T16:46:23.723Z,31.36
2018-07-25T16:48:52.408Z,31.13
2018-07-25T16:51:21.116Z,31.01
2018-07-25T16:53:49.801Z,30.90
2018-07-25T16:56:18.397Z,30.59
2018-07-25T16:58:47.176Z,30.34
2018-07-25T17:01:16.471Z,30.25
2018-07-25T17:03:44.966Z,30.21
2018-07-25T17:06:13.675Z,30.16
2018-07-25T17:08:42.506Z,30.02
2018-07-25T17:11:12.083Z,29.83
2018-07-25T17:13:40.793Z,29.73
2018-07-25T17:16:11.395Z,29.59
2018-07-25T17:18:41.685Z,29.68
2018-07-25T17:21:10.444Z,29.48
2018-07-25T17:23:39.143Z,29.30
2018-07-25T17:26:07.886Z,29.24
2018-07-25T17:28:37.893Z,29.17
2018-07-25T17:31:06.830Z,28.82
2018-07-25T17:33:35.531Z,28.58
2018-07-25T17:36:04.658Z,28.34
2018-07-25T17:38:33.424Z,28.11
2018-07-25T17:41:02.249Z,27.96
2018-07-25T17:43:31.143Z,27.77
2018-07-25T17:46:00.553Z,27.70
2018-07-25T17:48:29.300Z,27.59
2018-07-25T17:50:58.068Z,27.55
2018-07-25T17:53:26.558Z,27.55
2018-07-25T17:55:55.300Z,27.52
2018-07-25T17:58:24.131Z,27.46
2018-07-25T18:00:53.176Z,27.69
2018-07-25T18:03:22.438Z,27.58
2018-07-25T18:05:51.122Z,27.76
2018-07-25T18:08:19.778Z,27.65
2018-07-25T18:10:48.340Z,27.46
2018-07-25T18:13:23.132Z,27.33
2018-07-25T18:15:51.865Z,27.49
2018-07-25T18:18:20.570Z,27.33
2018-07-25T18:20:49.144Z,27.26
2018-07-25T18:23:18.698Z,27.12
2018-07-25T18:25:47.416Z,27.01
2018-07-25T18:28:18.133Z,26.81
2018-07-25T18:30:46.891Z,26.65
2018-07-25T18:33:15.728Z,26.51
2018-07-25T18:35:44.500Z,26.43
2018-07-25T18:38:13.130Z,26.30
2018-07-25T18:40:42.000Z,26.10
2018-07-25T18:43:10.948Z,25.95
2018-07-25T18:45:39.701Z,25.86
2018-07-25T18:48:08.460Z,25.84
2018-07-25T18:50:37.221Z,25.86
2018-07-25T18:53:07.324Z,25.81
2018-07-25T18:55:36.131Z,25.91
2018-07-25T18:58:05.333Z,26.10
2018-07-25T19:00:35.119Z,26.01
2018-07-25T19:03:04.036Z,25.82
2018-07-25T19:05:32.961Z,25.60
2018-07-25T19:08:02.789Z,25.47
2018-07-25T19:10:31.408Z,25.84
2018-07-25T19:13:00.256Z,25.97
2018-07-25T19:15:32.023Z,26.01
2018-07-25T19:18:01.166Z,25.94
2018-07-25T19:20:29.946Z,25.98
2018-07-25T19:22:58.651Z,26.04
2018-07-25T19:25:27.488Z,25.93
2018-07-25T19:27:56.127Z,26.02
2018-07-25T19:30:24.926Z,26.05
2018-07-25T19:32:53.976Z,25.88
2018-07-25T19:35:22.662Z,25.62
2018-07-25T19:37:51.376Z,25.51
2018-07-25T19:40:20.853Z,25.35
2018-07-25T19:42:49.583Z,25.20
2018-07-25T19:45:18.430Z,25.00
2018-07-25T19:47:47.176Z,24.73
2018-07-25T19:50:16.025Z,24.65
2018-07-25T19:52:45.116Z,24.56
2018-07-25T19:55:14.153Z,24.41
2018-07-25T19:57:42.903Z,24.39
2018-07-25T20:00:16.382Z,24.33
2018-07-25T20:02:40.525Z,24.24
2018-07-25T20:05:09.339Z,24.20
2018-07-25T20:07:38.201Z,24.11
2018-07-25T20:10:08.233Z,23.98
2018-07-25T20:12:37.143Z,23.83
2018-07-25T20:15:12.294Z,23.75
2018-07-25T20:17:41.087Z,23.65
2018-07-25T20:20:10.814Z,23.56
2018-07-25T20:22:39.728Z,23.47
2018-07-25T20:25:08.765Z,23.40
2018-07-25T20:27:37.742Z,23.43
2018-07-25T20:30:08.550Z,23.41
2018-07-25T20:32:37.489Z,23.41
2018-07-25T20:35:07.493Z,23.35
2018-07-25T20:37:40.534Z,23.33
2018-07-25T20:40:09.431Z,23.25
2018-07-25T20:42:39.332Z,23.12
2018-07-25T20:45:08.469Z,22.99
2018-07-25T20:47:37.914Z,22.87
2018-07-25T20:50:06.871Z,22.82
2018-07-25T20:52:36.453Z,22.73
2018-07-25T20:55:05.488Z,23.13
2018-07-25T20:57:34.369Z,23.18
2018-07-25T21:00:04.027Z,23.18
2018-07-25T21:02:32.810Z,23.26
2018-07-25T21:05:01.683Z,23.22
2018-07-25T21:07:30.526Z,22.80
2018-07-25T21:09:59.238Z,22.57
2018-07-25T21:12:29.436Z,22.43
2018-07-25T21:14:58.721Z,22.62
2018-07-25T21:17:27.528Z,22.43
2018-07-25T21:19:56.564Z,22.39
2018-07-25T21:22:26.299Z,22.95
2018-07-25T21:24:55.813Z,23.31
2018-07-25T21:27:24.573Z,23.21
2018-07-25T21:29:53.332Z,23.04
2018-07-25T21:32:22.111Z,22.72
2018-07-25T21:34:50.819Z,22.30
2018-07-25T21:37:20.165Z,22.09
2018-07-25T21:39:49.190Z,21.98
2018-07-25T21:42:18.744Z,21.92
2018-07-25T21:44:47.415Z,21.72
2018-07-25T21:47:16.200Z,21.48
2018-07-25T21:49:45.178Z,21.31
2018-07-25T21:52:14.280Z,21.22
2018-07-25T21:54:43.483Z,21.29
2018-07-25T21:57:12.239Z,21.30
2018-07-25T21:59:41.061Z,21.31
2018-07-25T22:02:09.851Z,21.27
2018-07-25T22:04:38.631Z,21.13
2018-07-25T22:07:07.361Z,20.97
2018-07-25T22:09:36.881Z,20.86
2018-07-25T22:12:05.449Z,20.72
2018-07-25T22:14:34.079Z,20.65
2018-07-25T22:17:02.849Z,20.59
2018-07-25T22:19:31.653Z,20.45
2018-07-25T22:22:00.570Z,20.69
2018-07-25T22:24:30.058Z,20.81
2018-07-25T22:26:58.816Z,20.91
2018-07-25T22:29:27.502Z,21.17
2018-07-25T22:31:56.176Z,20.52
2018-07-25T22:34:24.938Z,21.19
2018-07-25T22:36:53.741Z,21.13
2018-07-25T22:39:22.263Z,21.09
2018-07-25T22:41:52.006Z,21.08
2018-07-25T22:44:20.706Z,21.02
2018-07-25T22:46:49.536Z,20.95
2018-07-25T22:49:18.208Z,20.89
2018-07-25T22:51:46.931Z,20.63
2018-07-25T22:54:15.643Z,20.41
2018-07-25T22:56:44.432Z,20.30
2018-07-25T22:59:13.109Z,20.26
2018-07-25T23:01:41.815Z,20.30
2018-07-25T23:04:10.496Z,20.36
2018-07-25T23:06:39.139Z,20.36
2018-07-25T23:09:10.135Z,20.37
2018-07-25T23:11:38.598Z,20.37
2018-07-25T23:14:07.433Z,19.64
2018-07-25T23:16:36.111Z,20.40
2018-07-25T23:19:05.039Z,20.33
2018-07-25T23:21:33.900Z,20.48
2018-07-25T23:24:02.593Z,20.44
2018-07-25T23:26:31.303Z,20.43
2018-07-25T23:28:59.963Z,20.34
2018-07-25T23:31:28.904Z,20.22
2018-07-25T23:33:57.630Z,20.07
2018-07-25T23:36:26.348Z,20.05
2018-07-25T23:38:55.115Z,20.27
2018-07-25T23:41:23.875Z,20.31
2018-07-25T23:43:53.010Z,20.48
2018-07-25T23:46:21.688Z,20.27
2018-07-25T23:48:50.398Z,20.18
2018-07-25T23:51:19.130Z,20.04
2018-07-25T23:53:47.830Z,19.90
2018-07-25T23:56:16.545Z,19.71
2018-07-25T23:58:45.163Z,20.00
